The World — C6RW4 — position and weather

sailwx.info

Track history (hours):
 
Tides and Currents Weather Stations Pressure Air Temp Water Temp Dewpoint Dewpoint Depression Visibility Wind Speed Wind Dir Waves Ship Positions

The World

Operator: Bergshav-Norway

Last reported at 2019-Jul-20 13:30 UTC. Time now 2019-Jul-20 14:00 UTC.
Position N 49°56' W 003°29'.

Length 196 m; draft 7.1 m.

Type: Passenger vessel. MMSI: 311213000.

Date/timePositionNaut miles runAvg speedWind from/ knotsBaromVisibWave heightAir tempDewpointWater temp
2019-Jul-20 13:30N 49°56' W 003°29'4 7.4
2019-Jul-20 13:01N 49°57' W 003°23'4 7.5
2019-Jul-20 12:30N 49°58' W 003°17'4 7.4
2019-Jul-20 12:01N 49°59' W 003°12'4 7.4
2019-Jul-20 11:30N 49°59' W 003°06'4 7.5
2019-Jul-20 11:01N 50°00' W 003°01'4 7.7
2019-Jul-20 10:31N 50°01' W 002°55'4 7.4
2019-Jul-20 10:01N 50°02' W 002°49'4 7.4
2019-Jul-20 09:31N 50°03' W 002°44'4 7.4
2019-Jul-20 09:01N 50°04' W 002°38'4 7.1
2019-Jul-20 08:31N 50°05' W 002°33'3 6.7
2019-Jul-20 08:00N 50°06' W 002°28'4 7.0
2019-Jul-20 07:30N 50°07' W 002°22'4 7.3
2019-Jul-20 06:59N 50°08' W 002°17'5 7.2
2019-Jul-20 06:18N 50°09' W 002°09'2 7.6
2019-Jul-20 06:01N 50°10' W 002°06'4 7.4
2019-Jul-20 05:30N 50°11' W 002°01'4 7.5
2019-Jul-20 04:54N 50°12' W 001°54'3 7.9
2019-Jul-20 04:30N 50°13' W 001°49'4 8.2
2019-Jul-20 04:00N 50°14' W 001°43'4 7.9
2019-Jul-20 03:31N 50°16' W 001°37'4 8.5
2019-Jul-20 03:00N 50°17' W 001°31'5 9.1
2019-Jul-20 02:31N 50°18' W 001°24'4 7.8
2019-Jul-20 02:00N 50°19' W 001°18'4 7.4
2019-Jul-20 01:30N 50°20' W 001°12'4 7.5
2019-Jul-20 01:00N 50°21' W 001°07'4 8.0
2019-Jul-20 00:30N 50°22' W 001°01'4 8.0
2019-Jul-20 00:00N 50°23' W 000°55'4 8.1
2019-Jul-19 23:31N 50°24' W 000°48'4 7.3
2019-Jul-19 23:01N 50°25' W 000°43'3 6.5
2019-Jul-19 22:30N 50°26' W 000°38'3 5.6
2019-Jul-19 21:58N 50°27' W 000°33'3 5.8
2019-Jul-19 21:30N 50°27' W 000°29'3 6.4
2019-Jul-19 21:01N 50°28' W 000°25'3 6.8
2019-Jul-19 20:30N 50°29' W 000°19'4 7.3
2019-Jul-19 20:01N 50°30' W 000°14'4 7.9
2019-Jul-19 19:31N 50°31' W 000°08'4 7.7
2019-Jul-19 18:58N 50°32' W 000°02'4 7.5
2019-Jul-19 18:27N 50°33' E 000°04'6 7.5
2019-Jul-19 17:40N 50°34' E 000°13'2 7.7
2019-Jul-19 17:27N 50°35' E 000°16'4 7.9
2019-Jul-19 17:00N 50°36' E 000°21'4 7.9
2019-Jul-19 16:29N 50°37' E 000°27'4 8.0
2019-Jul-19 16:00N 50°38' E 000°33'4 8.0
2019-Jul-19 15:31N 50°39' E 000°39'5 9.9
2019-Jul-19 15:00N 50°42' E 000°46'5 9.7
2019-Jul-19 14:30N 50°45' E 000°52'612.9
2019-Jul-19 14:00N 50°49' E 000°59'4 7.7
2019-Jul-19 13:30N 50°52' E 001°04'4 7.6
2019-Jul-19 13:00N 50°54' E 001°08'4 7.5
2019-Jul-19 12:30N 50°57' E 001°13'4 7.3
2019-Jul-19 12:00N 50°59' E 001°17'3 6.3
2019-Jul-19 11:30N 51°01' E 001°21'4 7.1
2019-Jul-19 11:00N 51°03' E 001°25'4 7.3
2019-Jul-19 10:30N 51°06' E 001°30'3 7.0
2019-Jul-19 10:00N 51°08' E 001°34'4 7.2
2019-Jul-19 09:30N 51°11' E 001°38'4 7.5
2019-Jul-19 09:00N 51°15' E 001°38'4 7.4
2019-Jul-19 08:30N 51°18' E 001°37'4 7.2
2019-Jul-19 08:00N 51°22' E 001°35'4 7.1
2019-Jul-19 07:30N 51°24' E 001°32'5 9.5
2019-Jul-19 07:00N 51°28' E 001°26'816.3
2019-Jul-19 06:30N 51°29' E 001°13'713.4
2019-Jul-19 06:00N 51°30' E 001°02'816.7
2019-Jul-19 05:30N 51°29' E 000°49'917.5
2019-Jul-19 05:00N 51°30' E 000°35'612.2
2019-Jul-19 04:31N 51°27' E 000°26'5 9.6
2019-Jul-19 04:01N 51°28' E 000°19'510.5
2019-Jul-19 03:30N 51°30' E 000°11'5 9.6
2019-Jul-19 03:00N 51°30' E 000°03'2 3.6
2019-Jul-19 02:30N 51°30' W 000°00'1 1.5
2019-Jul-19 02:00N 51°29' W 000°01'0 0.0
2019-Jul-19 01:30N 51°29' W 000°01'0 0.0
2019-Jul-19 01:00N 51°29' W 000°01'0 0.0
2019-Jul-19 00:24N 51°29' W 000°01'0 0.0
2019-Jul-18 23:30N 51°29' W 000°01'0 0.0
2019-Jul-18 22:18N 51°29' W 000°01'0 0.0
2019-Jul-18 21:54N 51°29' W 000°01'0 0.0
2019-Jul-18 21:12N 51°29' W 000°01'0 0.0
2019-Jul-18 20:54N 51°29' W 000°01'0 0.0
2019-Jul-18 20:12N 51°29' W 000°01'0 0.0
2019-Jul-18 19:48N 51°29' W 000°01'0 0.0
2019-Jul-18 19:30N 51°29' W 000°01'0 0.0
2019-Jul-18 19:00N 51°29' W 000°01'0 0.0
2019-Jul-18 18:00N 51°29' W 000°01'0 0.0
2019-Jul-18 16:54N 51°29' W 000°01'0 0.0
2019-Jul-18 16:12N 51°29' W 000°01'0 0.0
2019-Jul-18 16:00N 51°29' W 000°01'0 0.0
2019-Jul-18 15:24N 51°29' W 000°01'0 0.0
2019-Jul-18 15:00N 51°29' W 000°01'0 0.0
2019-Jul-18 14:24N 51°29' W 000°01'0 0.0
2019-Jul-18 13:54N 51°29' W 000°01'0 0.0
2019-Jul-18 13:30N 51°29' W 000°01'0 0.0
2019-Jul-18 12:48N 51°29' W 000°01'0 0.0
2019-Jul-18 12:06N 51°29' W 000°01'0 0.0
2019-Jul-18 11:42N 51°29' W 000°01'0 0.0
2019-Jul-18 11:06N 51°29' W 000°01'0 0.0
2019-Jul-18 10:54N 51°29' W 000°01'0 0.0
2019-Jul-18 10:30N 51°29' W 000°01'0 0.0
2019-Jul-18 10:00N 51°29' W 000°01'0 0.0
2019-Jul-18 08:42N 51°29' W 000°01'0 0.0
2019-Jul-18 08:24N 51°29' W 000°01'0 0.0
2019-Jul-18 07:42N 51°29' W 000°01'0 0.0
2019-Jul-18 07:24N 51°29' W 000°01'0 0.0
2019-Jul-18 06:42N 51°29' W 000°01'0 0.0
2019-Jul-18 06:30N 51°29' W 000°01'0 0.0
2019-Jul-18 06:00N 51°29' W 000°01'0 0.0
2019-Jul-18 05:24N 51°29' W 000°01'0 0.0
2019-Jul-18 05:00N 51°29' W 000°01'0 0.0
2019-Jul-18 04:30N 51°29' W 000°01'0 0.0
2019-Jul-18 04:00N 51°29' W 000°01'0 0.0
2019-Jul-18 03:24N 51°29' W 000°01'0 0.0
2019-Jul-18 02:48N 51°29' W 000°01'0 0.0
2019-Jul-18 01:54N 51°29' W 000°01'0 0.0
2019-Jul-18 01:00N 51°29' W 000°01'0 0.0
2019-Jul-18 00:30N 51°29' W 000°01'0 0.0
2019-Jul-18 00:00N 51°29' W 000°01'0 0.0
2019-Jul-17 23:18N 51°29' W 000°01'0 0.0
2019-Jul-17 22:48N 51°29' W 000°01'0 0.0
2019-Jul-17 22:30N 51°29' W 000°01'0 0.0
2019-Jul-17 22:00N 51°29' W 000°01'0 0.0
2019-Jul-17 21:24N 51°29' W 000°01'0 0.0
2019-Jul-17 21:00N 51°29' W 000°01'0 0.0
2019-Jul-17 20:30N 51°29' W 000°01'0 0.0
2019-Jul-17 20:00N 51°29' W 000°01'0 0.0
2019-Jul-17 19:24N 51°29' W 000°01'0 0.0
2019-Jul-17 18:36N 51°29' W 000°01'0 0.0
2019-Jul-17 18:24N 51°29' W 000°01'0 0.0
2019-Jul-17 17:54N 51°29' W 000°01'0 0.0
2019-Jul-17 17:06N 51°29' W 000°01'0 0.0
2019-Jul-17 16:36N 51°29' W 000°01'0 0.0
2019-Jul-17 15:42N 51°29' W 000°01'0 0.0
2019-Jul-17 15:30N 51°29' W 000°01'0 0.0
2019-Jul-17 14:42N 51°29' W 000°01'0 0.0
2019-Jul-17 14:30N 51°29' W 000°01'0 0.0
2019-Jul-17 13:48N 51°29' W 000°01'0 0.0
2019-Jul-17 13:30N 51°29' W 000°01'0 0.0
2019-Jul-17 12:54N 51°29' W 000°01'0 0.0
2019-Jul-17 12:18N 51°29' W 000°01'0 0.0
2019-Jul-17 12:00N 51°29' W 000°01'0 0.0
2019-Jul-17 11:12N 51°29' W 000°01'0 0.0
2019-Jul-17 10:54N 51°29' W 000°01'0 0.0
2019-Jul-17 10:12N 51°29' W 000°01'0 0.0
2019-Jul-17 09:42N 51°29' W 000°01'0 0.0
2019-Jul-17 09:12N 51°29' W 000°01'0 0.0
2019-Jul-17 08:54N 51°29' W 000°01'0 0.0
2019-Jul-17 08:30N 51°29' W 000°01'0 0.0
2019-Jul-17 08:00N 51°29' W 000°01'0 0.0
2019-Jul-17 07:18N 51°29' W 000°01'0 0.0
2019-Jul-17 06:48N 51°29' W 000°01'0 0.0
2019-Jul-17 06:18N 51°29' W 000°01'0 0.0
2019-Jul-17 05:54N 51°29' W 000°01'0 0.0
2019-Jul-17 05:18N 51°29' W 000°01'0 0.0
2019-Jul-17 04:42N 51°29' W 000°01'0 0.0
2019-Jul-17 04:30N 51°29' W 000°01'0 0.0
2019-Jul-17 04:00N 51°29' W 000°01'0 0.0
2019-Jul-17 02:54N 51°29' W 000°01'0 0.0
2019-Jul-17 02:30N 51°29' W 000°01'0 0.0
2019-Jul-17 02:00N 51°29' W 000°01'0 0.0
2019-Jul-17 01:06N 51°29' W 000°01'0 0.0
2019-Jul-17 01:00N 51°29' W 000°01'0 0.0
2019-Jul-17 00:24N 51°29' W 000°01'0 0.0
2019-Jul-17 00:00N 51°29' W 000°01'0 0.0
2019-Jul-16 22:54N 51°29' W 000°01'0 0.0
2019-Jul-16 22:18N 51°29' W 000°01'0 0.0
2019-Jul-16 21:48N 51°29' W 000°01'0 0.0
2019-Jul-16 21:30N 51°29' W 000°01'0 0.0
2019-Jul-16 21:00N 51°29' W 000°01'0 0.0
2019-Jul-16 20:30N 51°29' W 000°01'0 0.0
2019-Jul-16 20:00N 51°29' W 000°01'0 0.0
2019-Jul-16 19:30N 51°29' W 000°01'0 0.0
2019-Jul-16 18:24N 51°29' W 000°01'0 0.0
2019-Jul-16 17:54N 51°29' W 000°01'0 0.0
2019-Jul-16 16:48N 51°29' W 000°01'0 0.0
2019-Jul-16 15:36N 51°29' W 000°01'0 0.0
2019-Jul-16 15:24N 51°29' W 000°01'0 0.0
2019-Jul-16 15:00N 51°29' W 000°01'0 0.0
2019-Jul-16 14:18N 51°29' W 000°01'0 0.0
2019-Jul-16 13:06N 51°29' W 000°01'0 0.0
2019-Jul-16 13:00N 51°29' W 000°01'0 0.0
2019-Jul-16 12:30N 51°29' W 000°01'0 0.0
2019-Jul-16 11:54N 51°29' W 000°01'0 0.0
2019-Jul-16 11:30N 51°29' W 000°01'0 0.0
2019-Jul-16 11:00N 51°29' W 000°01'0 0.0
2019-Jul-16 10:30N 51°29' W 000°01'0 0.0
2019-Jul-16 09:30N 51°29' W 000°01'0 0.0
2019-Jul-16 09:00N 51°29' W 000°01'0 0.0
2019-Jul-16 08:24N 51°29' W 000°01'0 0.0
2019-Jul-16 08:00N 51°29' W 000°01'0 0.0
2019-Jul-16 07:30N 51°29' W 000°01'0 0.0
2019-Jul-16 06:48N 51°29' W 000°01'0 0.0
2019-Jul-16 06:12N 51°29' W 000°01'0 0.0
2019-Jul-16 06:00N 51°29' W 000°01'0 0.0
2019-Jul-16 05:12N 51°29' W 000°01'0 0.0
2019-Jul-16 05:00N 51°29' W 000°01'0 0.0
2019-Jul-16 04:30N 51°29' W 000°01'0 0.0
2019-Jul-16 03:54N 51°29' W 000°01'0 0.0
2019-Jul-16 03:30N 51°29' W 000°01'0 0.0
2019-Jul-16 02:24N 51°29' W 000°01'0 0.0
2019-Jul-16 01:30N 51°29' W 000°01'0 0.0
2019-Jul-16 00:54N 51°29' W 000°01'0 0.0
2019-Jul-16 00:24N 51°29' W 000°01'0 0.0
2019-Jul-15 23:42N 51°29' W 000°01'0 0.0
2019-Jul-15 23:30N 51°29' W 000°01'0 0.0
2019-Jul-15 23:00N 51°29' W 000°01'0 0.0
2019-Jul-15 22:30N 51°29' W 000°01'0 0.0
2019-Jul-15 21:54N 51°29' W 000°01'0 0.0
2019-Jul-15 21:12N 51°29' W 000°01'0 0.0
2019-Jul-15 21:00N 51°29' W 000°01'0 0.0
2019-Jul-15 20:18N 51°29' W 000°01'0 0.0
2019-Jul-15 19:30N 51°29' W 000°01'0 0.0
2019-Jul-15 19:00N 51°29' W 000°01'0 0.0
2019-Jul-15 18:30N 51°29' W 000°01'0 0.0
2019-Jul-15 18:00N 51°29' W 000°01'0 0.0
2019-Jul-15 16:00N 51°29' W 000°01'0 0.0
2019-Jul-15 15:06N 51°29' W 000°01'0 0.0
2019-Jul-15 14:06N 51°29' W 000°01'0 0.0
2019-Jul-15 13:42N 51°29' W 000°01'0 0.0
2019-Jul-15 13:30N 51°29' W 000°01'0 0.0
2019-Jul-15 12:36N 51°29' W 000°01'0 0.0
2019-Jul-15 12:06N 51°29' W 000°01'0 0.0
2019-Jul-15 11:18N 51°29' W 000°01'0 0.0
2019-Jul-15 10:48N 51°29' W 000°01'0 0.0
2019-Jul-15 10:30N 51°29' W 000°01'0 0.0
2019-Jul-15 10:00N 51°29' W 000°01'0 0.0
2019-Jul-15 09:30N 51°29' W 000°01'0 0.0
2019-Jul-15 08:42N 51°29' W 000°01'0 0.0
2019-Jul-15 08:30N 51°29' W 000°01'0 0.0
2019-Jul-15 07:42N 51°29' W 000°01'0 0.0
2019-Jul-15 07:30N 51°29' W 000°01'0 0.0
2019-Jul-15 06:54N 51°29' W 000°01'0 0.0
2019-Jul-15 06:24N 51°29' W 000°01'0 0.0
2019-Jul-15 06:00N 51°29' W 000°01'0 0.0
2019-Jul-15 05:06N 51°29' W 000°01'0 0.0
2019-Jul-15 04:54N 51°29' W 000°01'0 0.0
2019-Jul-15 04:18N 51°29' W 000°01'0 0.0
2019-Jul-15 04:00N 51°29' W 000°01'0 0.0
2019-Jul-15 03:06N 51°29' W 000°01'0 0.0
2019-Jul-15 03:00N 51°29' W 000°01'0 0.0
2019-Jul-15 02:30N 51°29' W 000°01'0 0.0
2019-Jul-15 01:36N 51°29' W 000°01'0 0.0
2019-Jul-15 01:24N 51°29' W 000°01'0 0.0
2019-Jul-15 01:00N 51°29' W 000°01'0 0.0
2019-Jul-14 23:06N 51°29' W 000°01'0 0.0
2019-Jul-14 22:54N 51°29' W 000°01'0 0.0
2019-Jul-14 21:42N 51°29' W 000°01'0 0.0
2019-Jul-14 21:00N 51°29' W 000°01'0 0.0
2019-Jul-14 19:42N 51°29' W 000°01'0 0.0
2019-Jul-14 19:30N 51°29' W 000°01'1 0.1
2019-Jul-14 10:20N 51°30' W 000°00'2 5.1
2019-Jul-14 09:51N 51°30' E 000°04'3 9.6
2019-Jul-14 09:31N 51°31' E 000°09'611.4
2019-Jul-14 09:01N 51°28' E 000°16'4 7.9
2019-Jul-14 08:31N 51°27' E 000°23'510.6
2019-Jul-14 08:01N 51°30' E 000°30'713.8
2019-Jul-14 07:30N 51°30' E 000°41'713.5
2019-Jul-14 07:00N 51°29' E 000°51'713.4
2019-Jul-14 06:30N 51°30' E 001°02'713.4
2019-Jul-14 06:00N 51°29' E 001°13'713.4
2019-Jul-14 05:30N 51°28' E 001°24'510.9
2019-Jul-14 05:01N 51°25' E 001°30'4 7.7
2019-Jul-14 04:31N 51°22' E 001°35'4 8.6
2019-Jul-14 04:01N 51°18' E 001°38'4 8.6
2019-Jul-14 03:31N 51°14' E 001°38'5 9.7
2019-Jul-14 03:00N 51°09' E 001°36'611.4
2019-Jul-14 02:30N 51°04' E 001°36'510.8
2019-Jul-14 02:00N 50°60' E 001°31'611.2
2019-Jul-14 01:30N 50°55' E 001°25'5910.2
2019-Jul-13 19:40N 50°22' E 000°08'211.3
2019-Jul-13 19:30N 50°22' E 000°05'611.4
2019-Jul-13 19:00N 50°21' W 000°04'611.3
2019-Jul-13 18:30N 50°20' W 000°13'611.4
2019-Jul-13 18:00N 50°20' W 000°22'911.0
2019-Jul-13 17:14N 50°25' W 000°33'512.3
2019-Jul-13 16:50N 50°29' W 000°37'411.9
2019-Jul-13 16:30N 50°32' W 000°41'612.6
2019-Jul-13 16:00N 50°35' W 000°50'612.2
2019-Jul-13 15:30N 50°38' W 000°58'510.6
2019-Jul-13 15:00N 50°43' W 001°01'713.7
2019-Jul-13 14:30N 50°46' W 001°11'4 6.9
2019-Jul-13 13:59N 50°47' W 001°16'0 0.0
2019-Jul-13 13:29N 50°47' W 001°16'1 6.9
2019-Jul-13 13:20N 50°46' W 001°18'1 3.0
2019-Jul-13 12:59N 50°47' W 001°16'1 4.5
2019-Jul-13 12:45N 50°46' W 001°18'1 4.1
2019-Jul-13 12:29N 50°47' W 001°16'1 2.8
2019-Jul-13 12:04N 50°46' W 001°18'115.2
2019-Jul-13 11:59N 50°47' W 001°16'0 0.2
2019-Jul-13 11:29N 50°47' W 001°16'116.8
2019-Jul-13 11:26N 50°46' W 001°18'1 2.4
2019-Jul-13 10:59N 50°47' W 001°16'1 4.5
2019-Jul-13 10:46N 50°46' W 001°18'1 3.7
2019-Jul-13 10:29N 50°47' W 001°16'1 2.1
2019-Jul-13 10:00N 50°46' W 001°18'1107.7
2019-Jul-13 09:59N 50°47' W 001°16'0 0.0
2019-Jul-13 09:29N 50°47' W 001°16'1 9.0
2019-Jul-13 09:24N 50°46' W 001°18'1 1.9
2019-Jul-13 08:59N 50°47' W 001°16'0 1.2
2019-Jul-13 08:40N 50°47' W 001°17'0 2.4
2019-Jul-13 08:29N 50°47' W 001°16'0 0.0
2019-Jul-13 07:59N 50°47' W 001°16'0 0.1
2019-Jul-13 07:29N 50°47' W 001°16'0 0.2
2019-Jul-13 06:59N 50°47' W 001°16'0 0.0
2019-Jul-13 06:29N 50°47' W 001°16'0 0.1
2019-Jul-13 05:59N 50°47' W 001°16'0 0.0
2019-Jul-13 05:29N 50°47' W 001°16'0 0.0
2019-Jul-13 04:59N 50°47' W 001°16'0 0.0
2019-Jul-13 04:29N 50°47' W 001°16'0 0.0
2019-Jul-13 03:59N 50°47' W 001°16'0 0.0
2019-Jul-13 03:29N 50°47' W 001°16'0 0.0
2019-Jul-13 02:59N 50°47' W 001°16'0 0.0
2019-Jul-13 02:29N 50°47' W 001°16'0 0.1
2019-Jul-13 01:59N 50°47' W 001°16'0 0.0
2019-Jul-13 01:29N 50°47' W 001°16'0 0.1
2019-Jul-13 00:59N 50°47' W 001°16'0 0.0
2019-Jul-13 00:29N 50°47' W 001°16'0 0.0
2019-Jul-12 23:59N 50°47' W 001°16'0 0.0
2019-Jul-12 23:29N 50°47' W 001°16'1 7.3
2019-Jul-12 23:22N 50°46' W 001°18'1 2.6
2019-Jul-12 22:59N 50°47' W 001°16'0 0.1
2019-Jul-12 22:29N 50°47' W 001°16'0 0.0
2019-Jul-12 21:59N 50°47' W 001°16'1 5.5
2019-Jul-12 21:46N 50°46' W 001°18'1 4.5
2019-Jul-12 21:29N 50°47' W 001°16'118.3
2019-Jul-12 21:26N 50°46' W 001°18'1 2.4
2019-Jul-12 20:59N 50°47' W 001°16'1 7.2
2019-Jul-12 20:50N 50°46' W 001°18'1 3.1
2019-Jul-12 20:29N 50°47' W 001°16'124.2
2019-Jul-12 20:27N 50°46' W 001°18'1 2.4
2019-Jul-12 19:59N 50°47' W 001°16'0 0.3
2019-Jul-12 19:47N 50°47' W 001°16'0 0.2
2019-Jul-12 19:29N 50°47' W 001°16'142.4
2019-Jul-12 19:28N 50°46' W 001°18'0 0.0
2019-Jul-12 19:08N 50°46' W 001°18'1 8.2
2019-Jul-12 18:59N 50°47' W 001°16'1 4.4
2019-Jul-12 18:44N 50°46' W 001°18'0 0.8
2019-Jul-12 18:30N 50°46' W 001°18'1538.7
2019-Jul-12 18:29N 50°47' W 001°16'1 3.3
2019-Jul-12 18:07N 50°46' W 001°18'1 7.7
2019-Jul-12 17:59N 50°47' W 001°17'0774.5
2019-Jul-12 17:59N 50°47' W 001°16'1 4.9
2019-Jul-12 17:45N 50°46' W 001°18'1 4.8
2019-Jul-12 17:29N 50°47' W 001°16'1 3.5
2019-Jul-12 17:08N 50°46' W 001°18'1 9.2
2019-Jul-12 16:59N 50°47' W 001°16'1 3.4
2019-Jul-12 16:40N 50°46' W 001°18'1 6.1
2019-Jul-12 16:29N 50°47' W 001°16'0 0.2
2019-Jul-12 16:16N 50°47' W 001°16'0 0.2
2019-Jul-12 15:59N 50°47' W 001°16'012.9
2019-Jul-12 15:59N 50°47' W 001°16'0 0.2
2019-Jul-12 15:29N 50°47' W 001°16'0 0.4
2019-Jul-12 15:17N 50°47' W 001°16'0 0.2
2019-Jul-12 14:59N 50°47' W 001°16'0 1.3
2019-Jul-12 14:57N 50°47' W 001°16'1 3.9
2019-Jul-12 14:40N 50°46' W 001°18'1 6.5
2019-Jul-12 14:29N 50°47' W 001°16'1 4.6
2019-Jul-12 14:16N 50°46' W 001°18'1 3.9
2019-Jul-12 13:59N 50°47' W 001°16'0 0.0
2019-Jul-12 13:29N 50°47' W 001°16'1 9.1
2019-Jul-12 13:22N 50°46' W 001°18'1 3.0
2019-Jul-12 12:59N 50°47' W 001°16'0 0.8
2019-Jul-12 12:53N 50°47' W 001°16'0 0.2
2019-Jul-12 12:29N 50°47' W 001°16'1 3.5
2019-Jul-12 12:10N 50°46' W 001°18'1 6.6
2019-Jul-12 11:59N 50°47' W 001°16'1 7.0
2019-Jul-12 11:50N 50°46' W 001°18'1 3.2
2019-Jul-12 11:29N 50°47' W 001°16'1 4.4
2019-Jul-12 11:14N 50°46' W 001°18'1 4.5
2019-Jul-12 10:59N 50°47' W 001°16'0 0.0
2019-Jul-12 10:29N 50°47' W 001°16'0 0.0
2019-Jul-12 09:59N 50°47' W 001°16'145.2
2019-Jul-12 09:58N 50°46' W 001°18'0 0.3
2019-Jul-12 09:39N 50°46' W 001°18'1 6.9
2019-Jul-12 09:29N 50°47' W 001°16'0 0.2
2019-Jul-12 09:13N 50°47' W 001°16'0 0.2
2019-Jul-12 08:59N 50°47' W 001°16'0 0.0
2019-Jul-12 08:29N 50°47' W 001°16'0 0.0
2019-Jul-12 07:59N 50°47' W 001°16'0 0.2
2019-Jul-12 07:29N 50°47' W 001°16'3 6.3
2019-Jul-12 07:00N 50°46' W 001°12'713.2
2019-Jul-12 06:30N 50°44' W 001°02'510.1
2019-Jul-12 06:00N 50°39' W 000°58'4 8.7
2019-Jul-12 05:30N 50°35' W 000°57'5 9.7
2019-Jul-12 05:00N 50°30' W 000°54'510.0
2019-Jul-12 04:30N 50°26' W 000°52'510.0
2019-Jul-12 04:00N 50°21' W 000°48'510.0
2019-Jul-12 03:30N 50°17' W 000°51'611.3
2019-Jul-12 03:00N 50°12' W 000°57'1111.4
2019-Jul-12 02:00N 50°08' W 001°13'611.4
2019-Jul-12 01:30N 50°07' W 001°22'611.5
2019-Jul-12 01:00N 50°05' W 001°31'611.4
2019-Jul-12 00:30N 50°04' W 001°39'612.0
2019-Jul-12 00:00N 50°02' W 001°48'612.4
2019-Jul-11 23:30N 50°00' W 001°57'812.5
2019-Jul-11 22:52N 49°55' W 002°07'515.1
2019-Jul-11 22:31N 49°50' W 002°08'913.4
2019-Jul-11 21:52N 49°42' W 002°05'412.2
2019-Jul-11 21:30N 49°38' W 002°08'713.1
2019-Jul-11 21:01N 49°31' W 002°12'713.4
2019-Jul-11 20:30N 49°25' W 002°16'612.4
2019-Jul-11 20:00N 49°20' W 002°20'612.4
2019-Jul-11 19:30N 49°14' W 002°24'613.0
2019-Jul-11 19:00N 49°08' W 002°25'1013.6
2019-Jul-11 18:16N 48°58' W 002°25'413.8
2019-Jul-11 17:58N 48°54' W 002°25'713.1
2019-Jul-11 17:25N 48°47' W 002°22'716.4
2019-Jul-11 17:00N 48°44' W 002°13'712.9
2019-Jul-11 16:30N 48°40' W 002°05'3 4.8
2019-Jul-11 15:58N 48°38' W 002°02'0 0.1
2019-Jul-11 15:25N 48°38' W 002°02'0 0.1
2019-Jul-11 15:01N 48°38' W 002°02'0 1.2
2019-Jul-11 15:00N 48°38' W 002°02'1 7.1
2019-Jul-11 14:51N 48°39' W 002°01'134.1
2019-Jul-11 14:49N 48°38' W 002°02'1 3.1
2019-Jul-11 14:30N 48°39' W 002°01'126.5
2019-Jul-11 14:28N 48°38' W 002°02'1 1.5
2019-Jul-11 14:00N 48°38' W 002°02'046.2
2019-Jul-11 14:00N 48°39' W 002°02'1 3.2
2019-Jul-11 13:43N 48°38' W 002°02'0 0.1
2019-Jul-11 13:27N 48°38' W 002°02'117.7
2019-Jul-11 13:24N 48°39' W 002°01'0 0.3
2019-Jul-11 12:54N 48°39' W 002°02'1 4.8
2019-Jul-11 12:43N 48°38' W 002°02'0 0.9
2019-Jul-11 12:21N 48°38' W 002°02'012.4
2019-Jul-11 12:19N 48°38' W 002°02'1115.6
2019-Jul-11 12:19N 48°39' W 002°01'0 0.1
2019-Jul-11 12:00N 48°39' W 002°02'1580.9
2019-Jul-11 12:00N 48°38' W 002°02'0 0.5
2019-Jul-11 11:55N 48°38' W 002°02'1 2.0
2019-Jul-11 11:30N 48°39' W 002°02'0175.2
2019-Jul-11 11:30N 48°38' W 002°02'0 5.5
2019-Jul-11 11:25N 48°38' W 002°02'0 0.1
2019-Jul-11 11:00N 48°38' W 002°02'1325.0
2019-Jul-11 11:00N 48°39' W 002°01'112.0
2019-Jul-11 10:55N 48°38' W 002°02'1 2.1
2019-Jul-11 10:31N 48°39' W 002°02'1279.2
2019-Jul-11 10:30N 48°38' W 002°02'0 0.5
2019-Jul-11 10:25N 48°38' W 002°02'0 0.1
2019-Jul-11 10:00N 48°38' W 002°02'1210.2
2019-Jul-11 10:00N 48°39' W 002°01'112.2
2019-Jul-11 09:55N 48°38' W 002°02'1 2.4
2019-Jul-11 09:30N 48°39' W 002°02'1270.9
2019-Jul-11 09:30N 48°38' W 002°02'0 2.5
2019-Jul-11 09:25N 48°38' W 002°02'0 1.1
2019-Jul-11 09:00N 48°38' W 002°02'1223.2
2019-Jul-11 09:00N 48°39' W 002°02'111.5
2019-Jul-11 08:55N 48°38' W 002°02'0 0.2
2019-Jul-11 08:31N 48°38' W 002°02'0 1.1
2019-Jul-11 08:25N 48°38' W 002°02'117.2
2019-Jul-11 08:22N 48°39' W 002°01'1 2.6
2019-Jul-11 08:00N 48°38' W 002°02'1149.0
2019-Jul-11 08:00N 48°39' W 002°02'110.2
2019-Jul-11 07:55N 48°38' W 002°02'0 0.0
2019-Jul-11 07:25N 48°38' W 002°02'11789.7
2019-Jul-11 07:25N 48°39' W 002°01'188.3
2019-Jul-11 07:25N 48°38' W 002°02'1 1.7
2019-Jul-11 07:00N 48°39' W 002°02'1 8.6
2019-Jul-11 06:55N 48°38' W 002°02'158.5
2019-Jul-11 06:55N 48°38' W 002°02'1 1.0
2019-Jul-11 06:25N 48°38' W 002°02'0 0.0
2019-Jul-11 05:55N 48°38' W 002°02'0 0.0
2019-Jul-11 05:25N 48°38' W 002°02'0 0.0
2019-Jul-11 04:55N 48°38' W 002°02'0 0.0
2019-Jul-11 04:25N 48°38' W 002°02'0 0.0
2019-Jul-11 03:55N 48°38' W 002°02'0 0.0
2019-Jul-11 03:25N 48°38' W 002°02'0 0.0
2019-Jul-11 02:55N 48°38' W 002°02'0 0.0
2019-Jul-11 02:19N 48°38' W 002°02'0 0.0
2019-Jul-11 01:49N 48°38' W 002°02'0 0.0
2019-Jul-11 01:25N 48°38' W 002°02'0 0.0
2019-Jul-10 23:43N 48°38' W 002°02'1 1.4
2019-Jul-10 23:21N 48°38' W 002°02'0 0.6
2019-Jul-10 22:58N 48°38' W 002°02'1 1.4
2019-Jul-10 22:24N 48°39' W 002°01'0 0.5
2019-Jul-10 21:38N 48°38' W 002°02'0 0.2
2019-Jul-10 20:57N 48°38' W 002°02'015.0
2019-Jul-10 20:57N 48°38' W 002°02'0 0.1
2019-Jul-10 20:12N 48°38' W 002°02'040.7
2019-Jul-10 20:12N 48°38' W 002°02'1 1.1
2019-Jul-10 19:33N 48°38' W 002°02'1 1.4
2019-Jul-10 18:58N 48°39' W 002°02'1 3.5
2019-Jul-10 18:44N 48°38' W 002°02'0 0.3
2019-Jul-10 18:37N 48°38' W 002°02'0 0.2
2019-Jul-10 18:28N 48°38' W 002°02'1 1.9
2019-Jul-10 18:00N 48°39' W 002°02'1 0.8
2019-Jul-10 16:53N 48°38' W 002°02'1 0.9
2019-Jul-10 15:55N 48°39' W 002°02'1 1.0
2019-Jul-10 15:21N 48°38' W 002°02'1 1.9
2019-Jul-10 14:59N 48°39' W 002°01'0 4.7
2019-Jul-10 14:54N 48°38' W 002°02'1 3.7
2019-Jul-10 14:43N 48°38' W 002°02'0 0.2
2019-Jul-10 14:30N 48°38' W 002°02'1 6.8
2019-Jul-10 14:21N 48°39' W 002°01'  
Track history (hours):
 
Tides and Currents Weather Stations Pressure Air Temp Water Temp Dewpoint Dewpoint Depression Visibility Wind Speed Wind Dir Waves Ship Positions

The World

Operator: Bergshav-Norway

Last reported at 2019-Jul-20 13:30 UTC. Time now 2019-Jul-20 14:00 UTC.
Position N 49°56' W 003°29'.

Length 196 m; draft 7.1 m.

Type: Passenger vessel. MMSI: 311213000.

Date/timePositionNaut miles runAvg speedWind from/ knotsBaromVisibWave heightAir tempDewpointWater temp
2019-Jul-20 13:30N 49°56' W 003°29'4 7.4
2019-Jul-20 13:01N 49°57' W 003°23'4 7.5
2019-Jul-20 12:30N 49°58' W 003°17'4 7.4
2019-Jul-20 12:01N 49°59' W 003°12'4 7.4
2019-Jul-20 11:30N 49°59' W 003°06'4 7.5
2019-Jul-20 11:01N 50°00' W 003°01'4 7.7
2019-Jul-20 10:31N 50°01' W 002°55'4 7.4
2019-Jul-20 10:01N 50°02' W 002°49'4 7.4
2019-Jul-20 09:31N 50°03' W 002°44'4 7.4
2019-Jul-20 09:01N 50°04' W 002°38'4 7.1
2019-Jul-20 08:31N 50°05' W 002°33'3 6.7
2019-Jul-20 08:00N 50°06' W 002°28'4 7.0
2019-Jul-20 07:30N 50°07' W 002°22'4 7.3
2019-Jul-20 06:59N 50°08' W 002°17'5 7.2
2019-Jul-20 06:18N 50°09' W 002°09'2 7.6
2019-Jul-20 06:01N 50°10' W 002°06'4 7.4
2019-Jul-20 05:30N 50°11' W 002°01'4 7.5
2019-Jul-20 04:54N 50°12' W 001°54'3 7.9
2019-Jul-20 04:30N 50°13' W 001°49'4 8.2
2019-Jul-20 04:00N 50°14' W 001°43'4 7.9
2019-Jul-20 03:31N 50°16' W 001°37'4 8.5
2019-Jul-20 03:00N 50°17' W 001°31'5 9.1
2019-Jul-20 02:31N 50°18' W 001°24'4 7.8
2019-Jul-20 02:00N 50°19' W 001°18'4 7.4
2019-Jul-20 01:30N 50°20' W 001°12'4 7.5
2019-Jul-20 01:00N 50°21' W 001°07'4 8.0
2019-Jul-20 00:30N 50°22' W 001°01'4 8.0
2019-Jul-20 00:00N 50°23' W 000°55'4 8.1
2019-Jul-19 23:31N 50°24' W 000°48'4 7.3
2019-Jul-19 23:01N 50°25' W 000°43'3 6.5
2019-Jul-19 22:30N 50°26' W 000°38'3 5.6
2019-Jul-19 21:58N 50°27' W 000°33'3 5.8
2019-Jul-19 21:30N 50°27' W 000°29'3 6.4
2019-Jul-19 21:01N 50°28' W 000°25'3 6.8
2019-Jul-19 20:30N 50°29' W 000°19'4 7.3
2019-Jul-19 20:01N 50°30' W 000°14'4 7.9
2019-Jul-19 19:31N 50°31' W 000°08'4 7.7
2019-Jul-19 18:58N 50°32' W 000°02'4 7.5
2019-Jul-19 18:27N 50°33' E 000°04'6 7.5
2019-Jul-19 17:40N 50°34' E 000°13'2 7.7
2019-Jul-19 17:27N 50°35' E 000°16'4 7.9
2019-Jul-19 17:00N 50°36' E 000°21'4 7.9
2019-Jul-19 16:29N 50°37' E 000°27'4 8.0
2019-Jul-19 16:00N 50°38' E 000°33'4 8.0
2019-Jul-19 15:31N 50°39' E 000°39'5 9.9
2019-Jul-19 15:00N 50°42' E 000°46'5 9.7
2019-Jul-19 14:30N 50°45' E 000°52'612.9
2019-Jul-19 14:00N 50°49' E 000°59'4 7.7
2019-Jul-19 13:30N 50°52' E 001°04'4 7.6
2019-Jul-19 13:00N 50°54' E 001°08'4 7.5
2019-Jul-19 12:30N 50°57' E 001°13'4 7.3
2019-Jul-19 12:00N 50°59' E 001°17'3 6.3
2019-Jul-19 11:30N 51°01' E 001°21'4 7.1
2019-Jul-19 11:00N 51°03' E 001°25'4 7.3
2019-Jul-19 10:30N 51°06' E 001°30'3 7.0
2019-Jul-19 10:00N 51°08' E 001°34'4 7.2
2019-Jul-19 09:30N 51°11' E 001°38'4 7.5
2019-Jul-19 09:00N 51°15' E 001°38'4 7.4
2019-Jul-19 08:30N 51°18' E 001°37'4 7.2
2019-Jul-19 08:00N 51°22' E 001°35'4 7.1
2019-Jul-19 07:30N 51°24' E 001°32'5 9.5
2019-Jul-19 07:00N 51°28' E 001°26'816.3
2019-Jul-19 06:30N 51°29' E 001°13'713.4
2019-Jul-19 06:00N 51°30' E 001°02'816.7
2019-Jul-19 05:30N 51°29' E 000°49'917.5
2019-Jul-19 05:00N 51°30' E 000°35'612.2
2019-Jul-19 04:31N 51°27' E 000°26'5 9.6
2019-Jul-19 04:01N 51°28' E 000°19'510.5
2019-Jul-19 03:30N 51°30' E 000°11'5 9.6
2019-Jul-19 03:00N 51°30' E 000°03'2 3.6
2019-Jul-19 02:30N 51°30' W 000°00'1 1.5
2019-Jul-19 02:00N 51°29' W 000°01'0 0.0
2019-Jul-19 01:30N 51°29' W 000°01'0 0.0
2019-Jul-19 01:00N 51°29' W 000°01'0 0.0
2019-Jul-19 00:24N 51°29' W 000°01'0 0.0
2019-Jul-18 23:30N 51°29' W 000°01'0 0.0
2019-Jul-18 22:18N 51°29' W 000°01'0 0.0
2019-Jul-18 21:54N 51°29' W 000°01'0 0.0
2019-Jul-18 21:12N 51°29' W 000°01'0 0.0
2019-Jul-18 20:54N 51°29' W 000°01'0 0.0
2019-Jul-18 20:12N 51°29' W 000°01'0 0.0
2019-Jul-18 19:48N 51°29' W 000°01'0 0.0
2019-Jul-18 19:30N 51°29' W 000°01'0 0.0
2019-Jul-18 19:00N 51°29' W 000°01'0 0.0
2019-Jul-18 18:00N 51°29' W 000°01'0 0.0
2019-Jul-18 16:54N 51°29' W 000°01'0 0.0
2019-Jul-18 16:12N 51°29' W 000°01'0 0.0
2019-Jul-18 16:00N 51°29' W 000°01'0 0.0
2019-Jul-18 15:24N 51°29' W 000°01'0 0.0
2019-Jul-18 15:00N 51°29' W 000°01'0 0.0
2019-Jul-18 14:24N 51°29' W 000°01'0 0.0
2019-Jul-18 13:54N 51°29' W 000°01'0 0.0
2019-Jul-18 13:30N 51°29' W 000°01'0 0.0
2019-Jul-18 12:48N 51°29' W 000°01'0 0.0
2019-Jul-18 12:06N 51°29' W 000°01'0 0.0
2019-Jul-18 11:42N 51°29' W 000°01'0 0.0
2019-Jul-18 11:06N 51°29' W 000°01'0 0.0
2019-Jul-18 10:54N 51°29' W 000°01'0 0.0
2019-Jul-18 10:30N 51°29' W 000°01'0 0.0
2019-Jul-18 10:00N 51°29' W 000°01'0 0.0
2019-Jul-18 08:42N 51°29' W 000°01'0 0.0
2019-Jul-18 08:24N 51°29' W 000°01'0 0.0
2019-Jul-18 07:42N 51°29' W 000°01'0 0.0
2019-Jul-18 07:24N 51°29' W 000°01'0 0.0
2019-Jul-18 06:42N 51°29' W 000°01'0 0.0
2019-Jul-18 06:30N 51°29' W 000°01'0 0.0
2019-Jul-18 06:00N 51°29' W 000°01'0 0.0
2019-Jul-18 05:24N 51°29' W 000°01'0 0.0
2019-Jul-18 05:00N 51°29' W 000°01'0 0.0
2019-Jul-18 04:30N 51°29' W 000°01'0 0.0
2019-Jul-18 04:00N 51°29' W 000°01'0 0.0
2019-Jul-18 03:24N 51°29' W 000°01'0 0.0
2019-Jul-18 02:48N 51°29' W 000°01'0 0.0
2019-Jul-18 01:54N 51°29' W 000°01'0 0.0
2019-Jul-18 01:00N 51°29' W 000°01'0 0.0
2019-Jul-18 00:30N 51°29' W 000°01'0 0.0
2019-Jul-18 00:00N 51°29' W 000°01'0 0.0
2019-Jul-17 23:18N 51°29' W 000°01'0 0.0
2019-Jul-17 22:48N 51°29' W 000°01'0 0.0
2019-Jul-17 22:30N 51°29' W 000°01'0 0.0
2019-Jul-17 22:00N 51°29' W 000°01'0 0.0
2019-Jul-17 21:24N 51°29' W 000°01'0 0.0
2019-Jul-17 21:00N 51°29' W 000°01'0 0.0
2019-Jul-17 20:30N 51°29' W 000°01'0 0.0
2019-Jul-17 20:00N 51°29' W 000°01'0 0.0
2019-Jul-17 19:24N 51°29' W 000°01'0 0.0
2019-Jul-17 18:36N 51°29' W 000°01'0 0.0
2019-Jul-17 18:24N 51°29' W 000°01'0 0.0
2019-Jul-17 17:54N 51°29' W 000°01'0 0.0
2019-Jul-17 17:06N 51°29' W 000°01'0 0.0
2019-Jul-17 16:36N 51°29' W 000°01'0 0.0
2019-Jul-17 15:42N 51°29' W 000°01'0 0.0
2019-Jul-17 15:30N 51°29' W 000°01'0 0.0
2019-Jul-17 14:42N 51°29' W 000°01'0 0.0
2019-Jul-17 14:30N 51°29' W 000°01'0 0.0
2019-Jul-17 13:48N 51°29' W 000°01'0 0.0
2019-Jul-17 13:30N 51°29' W 000°01'0 0.0
2019-Jul-17 12:54N 51°29' W 000°01'0 0.0
2019-Jul-17 12:18N 51°29' W 000°01'0 0.0
2019-Jul-17 12:00N 51°29' W 000°01'0 0.0
2019-Jul-17 11:12N 51°29' W 000°01'0 0.0
2019-Jul-17 10:54N 51°29' W 000°01'0 0.0
2019-Jul-17 10:12N 51°29' W 000°01'0 0.0
2019-Jul-17 09:42N 51°29' W 000°01'0 0.0
2019-Jul-17 09:12N 51°29' W 000°01'0 0.0
2019-Jul-17 08:54N 51°29' W 000°01'0 0.0
2019-Jul-17 08:30N 51°29' W 000°01'0 0.0
2019-Jul-17 08:00N 51°29' W 000°01'0 0.0
2019-Jul-17 07:18N 51°29' W 000°01'0 0.0
2019-Jul-17 06:48N 51°29' W 000°01'0 0.0
2019-Jul-17 06:18N 51°29' W 000°01'0 0.0
2019-Jul-17 05:54N 51°29' W 000°01'0 0.0
2019-Jul-17 05:18N 51°29' W 000°01'0 0.0
2019-Jul-17 04:42N 51°29' W 000°01'0 0.0
2019-Jul-17 04:30N 51°29' W 000°01'0 0.0
2019-Jul-17 04:00N 51°29' W 000°01'0 0.0
2019-Jul-17 02:54N 51°29' W 000°01'0 0.0
2019-Jul-17 02:30N 51°29' W 000°01'0 0.0
2019-Jul-17 02:00N 51°29' W 000°01'0 0.0
2019-Jul-17 01:06N 51°29' W 000°01'0 0.0
2019-Jul-17 01:00N 51°29' W 000°01'0 0.0
2019-Jul-17 00:24N 51°29' W 000°01'0 0.0
2019-Jul-17 00:00N 51°29' W 000°01'0 0.0
2019-Jul-16 22:54N 51°29' W 000°01'0 0.0
2019-Jul-16 22:18N 51°29' W 000°01'0 0.0
2019-Jul-16 21:48N 51°29' W 000°01'0 0.0
2019-Jul-16 21:30N 51°29' W 000°01'0 0.0
2019-Jul-16 21:00N 51°29' W 000°01'0 0.0
2019-Jul-16 20:30N 51°29' W 000°01'0 0.0
2019-Jul-16 20:00N 51°29' W 000°01'0 0.0
2019-Jul-16 19:30N 51°29' W 000°01'0 0.0
2019-Jul-16 18:24N 51°29' W 000°01'0 0.0
2019-Jul-16 17:54N 51°29' W 000°01'0 0.0
2019-Jul-16 16:48N 51°29' W 000°01'0 0.0
2019-Jul-16 15:36N 51°29' W 000°01'0 0.0
2019-Jul-16 15:24N 51°29' W 000°01'0 0.0
2019-Jul-16 15:00N 51°29' W 000°01'0 0.0
2019-Jul-16 14:18N 51°29' W 000°01'0 0.0
2019-Jul-16 13:06N 51°29' W 000°01'0 0.0
2019-Jul-16 13:00N 51°29' W 000°01'0 0.0
2019-Jul-16 12:30N 51°29' W 000°01'0 0.0
2019-Jul-16 11:54N 51°29' W 000°01'0 0.0
2019-Jul-16 11:30N 51°29' W 000°01'0 0.0
2019-Jul-16 11:00N 51°29' W 000°01'0 0.0
2019-Jul-16 10:30N 51°29' W 000°01'0 0.0
2019-Jul-16 09:30N 51°29' W 000°01'0 0.0
2019-Jul-16 09:00N 51°29' W 000°01'0 0.0
2019-Jul-16 08:24N 51°29' W 000°01'0 0.0
2019-Jul-16 08:00N 51°29' W 000°01'0 0.0
2019-Jul-16 07:30N 51°29' W 000°01'0 0.0
2019-Jul-16 06:48N 51°29' W 000°01'0 0.0
2019-Jul-16 06:12N 51°29' W 000°01'0 0.0
2019-Jul-16 06:00N 51°29' W 000°01'0 0.0
2019-Jul-16 05:12N 51°29' W 000°01'0 0.0
2019-Jul-16 05:00N 51°29' W 000°01'0 0.0
2019-Jul-16 04:30N 51°29' W 000°01'0 0.0
2019-Jul-16 03:54N 51°29' W 000°01'0 0.0
2019-Jul-16 03:30N 51°29' W 000°01'0 0.0
2019-Jul-16 02:24N 51°29' W 000°01'0 0.0
2019-Jul-16 01:30N 51°29' W 000°01'0 0.0
2019-Jul-16 00:54N 51°29' W 000°01'0 0.0
2019-Jul-16 00:24N 51°29' W 000°01'0 0.0
2019-Jul-15 23:42N 51°29' W 000°01'0 0.0
2019-Jul-15 23:30N 51°29' W 000°01'0 0.0
2019-Jul-15 23:00N 51°29' W 000°01'0 0.0
2019-Jul-15 22:30N 51°29' W 000°01'0 0.0
2019-Jul-15 21:54N 51°29' W 000°01'0 0.0
2019-Jul-15 21:12N 51°29' W 000°01'0 0.0
2019-Jul-15 21:00N 51°29' W 000°01'0 0.0
2019-Jul-15 20:18N 51°29' W 000°01'0 0.0
2019-Jul-15 19:30N 51°29' W 000°01'0 0.0
2019-Jul-15 19:00N 51°29' W 000°01'0 0.0
2019-Jul-15 18:30N 51°29' W 000°01'0 0.0
2019-Jul-15 18:00N 51°29' W 000°01'0 0.0
2019-Jul-15 16:00N 51°29' W 000°01'0 0.0
2019-Jul-15 15:06N 51°29' W 000°01'0 0.0
2019-Jul-15 14:06N 51°29' W 000°01'0 0.0
2019-Jul-15 13:42N 51°29' W 000°01'0 0.0
2019-Jul-15 13:30N 51°29' W 000°01'0 0.0
2019-Jul-15 12:36N 51°29' W 000°01'0 0.0
2019-Jul-15 12:06N 51°29' W 000°01'0 0.0
2019-Jul-15 11:18N 51°29' W 000°01'0 0.0
2019-Jul-15 10:48N 51°29' W 000°01'0 0.0
2019-Jul-15 10:30N 51°29' W 000°01'0 0.0
2019-Jul-15 10:00N 51°29' W 000°01'0 0.0
2019-Jul-15 09:30N 51°29' W 000°01'0 0.0
2019-Jul-15 08:42N 51°29' W 000°01'0 0.0
2019-Jul-15 08:30N 51°29' W 000°01'0 0.0
2019-Jul-15 07:42N 51°29' W 000°01'0 0.0
2019-Jul-15 07:30N 51°29' W 000°01'0 0.0
2019-Jul-15 06:54N 51°29' W 000°01'0 0.0
2019-Jul-15 06:24N 51°29' W 000°01'0 0.0
2019-Jul-15 06:00N 51°29' W 000°01'0 0.0
2019-Jul-15 05:06N 51°29' W 000°01'0 0.0
2019-Jul-15 04:54N 51°29' W 000°01'0 0.0
2019-Jul-15 04:18N 51°29' W 000°01'0 0.0
2019-Jul-15 04:00N 51°29' W 000°01'0 0.0
2019-Jul-15 03:06N 51°29' W 000°01'0 0.0
2019-Jul-15 03:00N 51°29' W 000°01'0 0.0
2019-Jul-15 02:30N 51°29' W 000°01'0 0.0
2019-Jul-15 01:36N 51°29' W 000°01'0 0.0
2019-Jul-15 01:24N 51°29' W 000°01'0 0.0
2019-Jul-15 01:00N 51°29' W 000°01'0 0.0
2019-Jul-14 23:06N 51°29' W 000°01'0 0.0
2019-Jul-14 22:54N 51°29' W 000°01'0 0.0
2019-Jul-14 21:42N 51°29' W 000°01'0 0.0
2019-Jul-14 21:00N 51°29' W 000°01'0 0.0
2019-Jul-14 19:42N 51°29' W 000°01'0 0.0
2019-Jul-14 19:30N 51°29' W 000°01'1 0.1
2019-Jul-14 10:20N 51°30' W 000°00'2 5.1
2019-Jul-14 09:51N 51°30' E 000°04'3 9.6
2019-Jul-14 09:31N 51°31' E 000°09'611.4
2019-Jul-14 09:01N 51°28' E 000°16'4 7.9
2019-Jul-14 08:31N 51°27' E 000°23'510.6
2019-Jul-14 08:01N 51°30' E 000°30'713.8
2019-Jul-14 07:30N 51°30' E 000°41'713.5
2019-Jul-14 07:00N 51°29' E 000°51'713.4
2019-Jul-14 06:30N 51°30' E 001°02'713.4
2019-Jul-14 06:00N 51°29' E 001°13'713.4
2019-Jul-14 05:30N 51°28' E 001°24'510.9
2019-Jul-14 05:01N 51°25' E 001°30'4 7.7
2019-Jul-14 04:31N 51°22' E 001°35'4 8.6
2019-Jul-14 04:01N 51°18' E 001°38'4 8.6
2019-Jul-14 03:31N 51°14' E 001°38'5 9.7
2019-Jul-14 03:00N 51°09' E 001°36'611.4
2019-Jul-14 02:30N 51°04' E 001°36'510.8
2019-Jul-14 02:00N 50°60' E 001°31'611.2
2019-Jul-14 01:30N 50°55' E 001°25'5910.2
2019-Jul-13 19:40N 50°22' E 000°08'211.3
2019-Jul-13 19:30N 50°22' E 000°05'611.4
2019-Jul-13 19:00N 50°21' W 000°04'611.3
2019-Jul-13 18:30N 50°20' W 000°13'611.4
2019-Jul-13 18:00N 50°20' W 000°22'911.0
2019-Jul-13 17:14N 50°25' W 000°33'512.3
2019-Jul-13 16:50N 50°29' W 000°37'411.9
2019-Jul-13 16:30N 50°32' W 000°41'612.6
2019-Jul-13 16:00N 50°35' W 000°50'612.2
2019-Jul-13 15:30N 50°38' W 000°58'510.6
2019-Jul-13 15:00N 50°43' W 001°01'713.7
2019-Jul-13 14:30N 50°46' W 001°11'4 6.9
2019-Jul-13 13:59N 50°47' W 001°16'0 0.0
2019-Jul-13 13:29N 50°47' W 001°16'1 6.9
2019-Jul-13 13:20N 50°46' W 001°18'1 3.0
2019-Jul-13 12:59N 50°47' W 001°16'1 4.5
2019-Jul-13 12:45N 50°46' W 001°18'1 4.1
2019-Jul-13 12:29N 50°47' W 001°16'1 2.8
2019-Jul-13 12:04N 50°46' W 001°18'115.2
2019-Jul-13 11:59N 50°47' W 001°16'0 0.2
2019-Jul-13 11:29N 50°47' W 001°16'116.8
2019-Jul-13 11:26N 50°46' W 001°18'1 2.4
2019-Jul-13 10:59N 50°47' W 001°16'1 4.5
2019-Jul-13 10:46N 50°46' W 001°18'1 3.7
2019-Jul-13 10:29N 50°47' W 001°16'1 2.1
2019-Jul-13 10:00N 50°46' W 001°18'1107.7
2019-Jul-13 09:59N 50°47' W 001°16'0 0.0
2019-Jul-13 09:29N 50°47' W 001°16'1 9.0
2019-Jul-13 09:24N 50°46' W 001°18'1 1.9
2019-Jul-13 08:59N 50°47' W 001°16'0 1.2
2019-Jul-13 08:40N 50°47' W 001°17'0 2.4
2019-Jul-13 08:29N 50°47' W 001°16'0 0.0
2019-Jul-13 07:59N 50°47' W 001°16'0 0.1
2019-Jul-13 07:29N 50°47' W 001°16'0 0.2
2019-Jul-13 06:59N 50°47' W 001°16'0 0.0
2019-Jul-13 06:29N 50°47' W 001°16'0 0.1
2019-Jul-13 05:59N 50°47' W 001°16'0 0.0
2019-Jul-13 05:29N 50°47' W 001°16'0 0.0
2019-Jul-13 04:59N 50°47' W 001°16'0 0.0
2019-Jul-13 04:29N 50°47' W 001°16'0 0.0
2019-Jul-13 03:59N 50°47' W 001°16'0 0.0
2019-Jul-13 03:29N 50°47' W 001°16'0 0.0
2019-Jul-13 02:59N 50°47' W 001°16'0 0.0
2019-Jul-13 02:29N 50°47' W 001°16'0 0.1
2019-Jul-13 01:59N 50°47' W 001°16'0 0.0
2019-Jul-13 01:29N 50°47' W 001°16'0 0.1
2019-Jul-13 00:59N 50°47' W 001°16'0 0.0
2019-Jul-13 00:29N 50°47' W 001°16'0 0.0
2019-Jul-12 23:59N 50°47' W 001°16'0 0.0
2019-Jul-12 23:29N 50°47' W 001°16'1 7.3
2019-Jul-12 23:22N 50°46' W 001°18'1 2.6
2019-Jul-12 22:59N 50°47' W 001°16'0 0.1
2019-Jul-12 22:29N 50°47' W 001°16'0 0.0
2019-Jul-12 21:59N 50°47' W 001°16'1 5.5
2019-Jul-12 21:46N 50°46' W 001°18'1 4.5
2019-Jul-12 21:29N 50°47' W 001°16'118.3
2019-Jul-12 21:26N 50°46' W 001°18'1 2.4
2019-Jul-12 20:59N 50°47' W 001°16'1 7.2
2019-Jul-12 20:50N 50°46' W 001°18'1 3.1
2019-Jul-12 20:29N 50°47' W 001°16'124.2
2019-Jul-12 20:27N 50°46' W 001°18'1 2.4
2019-Jul-12 19:59N 50°47' W 001°16'0 0.3
2019-Jul-12 19:47N 50°47' W 001°16'0 0.2
2019-Jul-12 19:29N 50°47' W 001°16'142.4
2019-Jul-12 19:28N 50°46' W 001°18'0 0.0
2019-Jul-12 19:08N 50°46' W 001°18'1 8.2
2019-Jul-12 18:59N 50°47' W 001°16'1 4.4
2019-Jul-12 18:44N 50°46' W 001°18'0 0.8
2019-Jul-12 18:30N 50°46' W 001°18'1538.7
2019-Jul-12 18:29N 50°47' W 001°16'1 3.3
2019-Jul-12 18:07N 50°46' W 001°18'1 7.7
2019-Jul-12 17:59N 50°47' W 001°17'0774.5
2019-Jul-12 17:59N 50°47' W 001°16'1 4.9
2019-Jul-12 17:45N 50°46' W 001°18'1 4.8
2019-Jul-12 17:29N 50°47' W 001°16'1 3.5
2019-Jul-12 17:08N 50°46' W 001°18'1 9.2
2019-Jul-12 16:59N 50°47' W 001°16'1 3.4
2019-Jul-12 16:40N 50°46' W 001°18'1 6.1
2019-Jul-12 16:29N 50°47' W 001°16'0 0.2
2019-Jul-12 16:16N 50°47' W 001°16'0 0.2
2019-Jul-12 15:59N 50°47' W 001°16'012.9
2019-Jul-12 15:59N 50°47' W 001°16'0 0.2
2019-Jul-12 15:29N 50°47' W 001°16'0 0.4
2019-Jul-12 15:17N 50°47' W 001°16'0 0.2
2019-Jul-12 14:59N 50°47' W 001°16'0 1.3
2019-Jul-12 14:57N 50°47' W 001°16'1 3.9
2019-Jul-12 14:40N 50°46' W 001°18'1 6.5
2019-Jul-12 14:29N 50°47' W 001°16'1 4.6
2019-Jul-12 14:16N 50°46' W 001°18'1 3.9
2019-Jul-12 13:59N 50°47' W 001°16'0 0.0
2019-Jul-12 13:29N 50°47' W 001°16'1 9.1
2019-Jul-12 13:22N 50°46' W 001°18'1 3.0
2019-Jul-12 12:59N 50°47' W 001°16'0 0.8
2019-Jul-12 12:53N 50°47' W 001°16'0 0.2
2019-Jul-12 12:29N 50°47' W 001°16'1 3.5
2019-Jul-12 12:10N 50°46' W 001°18'1 6.6
2019-Jul-12 11:59N 50°47' W 001°16'1 7.0
2019-Jul-12 11:50N 50°46' W 001°18'1 3.2
2019-Jul-12 11:29N 50°47' W 001°16'1 4.4
2019-Jul-12 11:14N 50°46' W 001°18'1 4.5
2019-Jul-12 10:59N 50°47' W 001°16'0 0.0
2019-Jul-12 10:29N 50°47' W 001°16'0 0.0
2019-Jul-12 09:59N 50°47' W 001°16'145.2
2019-Jul-12 09:58N 50°46' W 001°18'0 0.3
2019-Jul-12 09:39N 50°46' W 001°18'1 6.9
2019-Jul-12 09:29N 50°47' W 001°16'0 0.2
2019-Jul-12 09:13N 50°47' W 001°16'0 0.2
2019-Jul-12 08:59N 50°47' W 001°16'0 0.0
2019-Jul-12 08:29N 50°47' W 001°16'0 0.0
2019-Jul-12 07:59N 50°47' W 001°16'0 0.2
2019-Jul-12 07:29N 50°47' W 001°16'3 6.3
2019-Jul-12 07:00N 50°46' W 001°12'713.2
2019-Jul-12 06:30N 50°44' W 001°02'510.1
2019-Jul-12 06:00N 50°39' W 000°58'4 8.7
2019-Jul-12 05:30N 50°35' W 000°57'5 9.7
2019-Jul-12 05:00N 50°30' W 000°54'510.0
2019-Jul-12 04:30N 50°26' W 000°52'510.0
2019-Jul-12 04:00N 50°21' W 000°48'510.0
2019-Jul-12 03:30N 50°17' W 000°51'611.3
2019-Jul-12 03:00N 50°12' W 000°57'1111.4
2019-Jul-12 02:00N 50°08' W 001°13'611.4
2019-Jul-12 01:30N 50°07' W 001°22'611.5
2019-Jul-12 01:00N 50°05' W 001°31'611.4
2019-Jul-12 00:30N 50°04' W 001°39'612.0
2019-Jul-12 00:00N 50°02' W 001°48'612.4
2019-Jul-11 23:30N 50°00' W 001°57'812.5
2019-Jul-11 22:52N 49°55' W 002°07'515.1
2019-Jul-11 22:31N 49°50' W 002°08'913.4
2019-Jul-11 21:52N 49°42' W 002°05'412.2
2019-Jul-11 21:30N 49°38' W 002°08'713.1
2019-Jul-11 21:01N 49°31' W 002°12'713.4
2019-Jul-11 20:30N 49°25' W 002°16'612.4
2019-Jul-11 20:00N 49°20' W 002°20'612.4
2019-Jul-11 19:30N 49°14' W 002°24'613.0
2019-Jul-11 19:00N 49°08' W 002°25'1013.6
2019-Jul-11 18:16N 48°58' W 002°25'413.8
2019-Jul-11 17:58N 48°54' W 002°25'713.1
2019-Jul-11 17:25N 48°47' W 002°22'716.4
2019-Jul-11 17:00N 48°44' W 002°13'712.9
2019-Jul-11 16:30N 48°40' W 002°05'3 4.8
2019-Jul-11 15:58N 48°38' W 002°02'0 0.1
2019-Jul-11 15:25N 48°38' W 002°02'0 0.1
2019-Jul-11 15:01N 48°38' W 002°02'0 1.2
2019-Jul-11 15:00N 48°38' W 002°02'1 7.1
2019-Jul-11 14:51N 48°39' W 002°01'134.1
2019-Jul-11 14:49N 48°38' W 002°02'1 3.1
2019-Jul-11 14:30N 48°39' W 002°01'126.5
2019-Jul-11 14:28N 48°38' W 002°02'1 1.5
2019-Jul-11 14:00N 48°38' W 002°02'046.2
2019-Jul-11 14:00N 48°39' W 002°02'1 3.2
2019-Jul-11 13:43N 48°38' W 002°02'0 0.1
2019-Jul-11 13:27N 48°38' W 002°02'117.7
2019-Jul-11 13:24N 48°39' W 002°01'0 0.3
2019-Jul-11 12:54N 48°39' W 002°02'1 4.8
2019-Jul-11 12:43N 48°38' W 002°02'0 0.9
2019-Jul-11 12:21N 48°38' W 002°02'012.4
2019-Jul-11 12:19N 48°38' W 002°02'1115.6
2019-Jul-11 12:19N 48°39' W 002°01'0 0.1
2019-Jul-11 12:00N 48°39' W 002°02'1580.9
2019-Jul-11 12:00N 48°38' W 002°02'0 0.5
2019-Jul-11 11:55N 48°38' W 002°02'1 2.0
2019-Jul-11 11:30N 48°39' W 002°02'0175.2
2019-Jul-11 11:30N 48°38' W 002°02'0 5.5
2019-Jul-11 11:25N 48°38' W 002°02'0 0.1
2019-Jul-11 11:00N 48°38' W 002°02'1325.0
2019-Jul-11 11:00N 48°39' W 002°01'112.0
2019-Jul-11 10:55N 48°38' W 002°02'1 2.1
2019-Jul-11 10:31N 48°39' W 002°02'1279.2
2019-Jul-11 10:30N 48°38' W 002°02'0 0.5
2019-Jul-11 10:25N 48°38' W 002°02'0 0.1
2019-Jul-11 10:00N 48°38' W 002°02'1210.2
2019-Jul-11 10:00N 48°39' W 002°01'112.2
2019-Jul-11 09:55N 48°38' W 002°02'1 2.4
2019-Jul-11 09:30N 48°39' W 002°02'1270.9
2019-Jul-11 09:30N 48°38' W 002°02'0 2.5
2019-Jul-11 09:25N 48°38' W 002°02'0 1.1
2019-Jul-11 09:00N 48°38' W 002°02'1223.2
2019-Jul-11 09:00N 48°39' W 002°02'111.5
2019-Jul-11 08:55N 48°38' W 002°02'0 0.2
2019-Jul-11 08:31N 48°38' W 002°02'0 1.1
2019-Jul-11 08:25N 48°38' W 002°02'117.2
2019-Jul-11 08:22N 48°39' W 002°01'1 2.6
2019-Jul-11 08:00N 48°38' W 002°02'1149.0
2019-Jul-11 08:00N 48°39' W 002°02'110.2
2019-Jul-11 07:55N 48°38' W 002°02'0 0.0
2019-Jul-11 07:25N 48°38' W 002°02'11789.7
2019-Jul-11 07:25N 48°39' W 002°01'188.3
2019-Jul-11 07:25N 48°38' W 002°02'1 1.7
2019-Jul-11 07:00N 48°39' W 002°02'1 8.6
2019-Jul-11 06:55N 48°38' W 002°02'158.5
2019-Jul-11 06:55N 48°38' W 002°02'1 1.0
2019-Jul-11 06:25N 48°38' W 002°02'0 0.0
2019-Jul-11 05:55N 48°38' W 002°02'0 0.0
2019-Jul-11 05:25N 48°38' W 002°02'0 0.0
2019-Jul-11 04:55N 48°38' W 002°02'0 0.0
2019-Jul-11 04:25N 48°38' W 002°02'0 0.0
2019-Jul-11 03:55N 48°38' W 002°02'0 0.0
2019-Jul-11 03:25N 48°38' W 002°02'0 0.0
2019-Jul-11 02:55N 48°38' W 002°02'0 0.0
2019-Jul-11 02:19N 48°38' W 002°02'0 0.0
2019-Jul-11 01:49N 48°38' W 002°02'0 0.0
2019-Jul-11 01:25N 48°38' W 002°02'0 0.0
2019-Jul-10 23:43N 48°38' W 002°02'1 1.4
2019-Jul-10 23:21N 48°38' W 002°02'0 0.6
2019-Jul-10 22:58N 48°38' W 002°02'1 1.4
2019-Jul-10 22:24N 48°39' W 002°01'0 0.5
2019-Jul-10 21:38N 48°38' W 002°02'0 0.2
2019-Jul-10 20:57N 48°38' W 002°02'015.0
2019-Jul-10 20:57N 48°38' W 002°02'0 0.1
2019-Jul-10 20:12N 48°38' W 002°02'040.7
2019-Jul-10 20:12N 48°38' W 002°02'1 1.1
2019-Jul-10 19:33N 48°38' W 002°02'1 1.4
2019-Jul-10 18:58N 48°39' W 002°02'1 3.5
2019-Jul-10 18:44N 48°38' W 002°02'0 0.3
2019-Jul-10 18:37N 48°38' W 002°02'0 0.2
2019-Jul-10 18:28N 48°38' W 002°02'1 1.9
2019-Jul-10 18:00N 48°39' W 002°02'1 0.8
2019-Jul-10 16:53N 48°38' W 002°02'1 0.9
2019-Jul-10 15:55N 48°39' W 002°02'1 1.0
2019-Jul-10 15:21N 48°38' W 002°02'1 1.9
2019-Jul-10 14:59N 48°39' W 002°01'0 4.7
2019-Jul-10 14:54N 48°38' W 002°02'1 3.7
2019-Jul-10 14:43N 48°38' W 002°02'0 0.2
2019-Jul-10 14:30N 48°38' W 002°02'1 6.8
2019-Jul-10 14:21N 48°39' W 002°01'  

Dump ship's entire track history